Time;durP1;ratioP1;P1;durP2;ratioP2;P2;SDS_P1;SDS_P2;PMS_P1;PMS_P2;Temp;Humidity;BMP_temperature;BMP_pressure;BME280_temperature;BME280_humidity;BME280_pressure;Samples;Min_cycle;Max_cycle;Signal;HPM_P1;HPM_P2
2024/04/10 00:00:15;;;;;;;;;4.00;1.00;;;;;;;;5451204;26;10784;-83
2024/04/10 00:02:44;;;;;;;;;1.00;1.00;;;;;;;;5426198;26;10935;-84
2024/04/10 00:05:13;;;;;;;;;7.00;2.00;;;;;;;;5432844;26;10900;-83
2024/04/10 00:07:42;;;;;;;;;1.50;1.50;;;;;;;;5438384;26;10969;-82
2024/04/10 00:10:09;;;;;;;;;5.25;2.00;;;;;;;;5434655;26;11800;-83
2024/04/10 00:12:38;;;;;;;;;2.25;1.00;;;;;;;;5446947;26;10955;-83
2024/04/10 00:15:05;;;;;;;;;1.00;1.00;;;;;;;;5452709;26;11013;-83
2024/04/10 00:17:33;;;;;;;;;2.00;0.00;;;;;;;;5449728;26;11001;-83
2024/04/10 00:20:00;;;;;;;;;3.00;1.25;;;;;;;;5430518;26;10819;-82
2024/04/10 00:22:32;;;;;;;;;1.00;1.00;;;;;;;;5438213;26;10830;-83
2024/04/10 00:25:01;;;;;;;;;1.25;1.25;;;;;;;;5416526;26;10902;-83
2024/04/10 00:27:33;;;;;;;;;5.00;0.00;;;;;;;;5424361;26;10925;-83
2024/04/10 00:30:02;;;;;;;;;2.75;1.00;;;;;;;;5425571;26;10876;-82
2024/04/10 00:32:34;;;;;;;;;0.75;0.75;;;;;;;;5428416;26;10689;-82
2024/04/10 00:35:00;;;;;;;;;1.25;1.00;;;;;;;;5422194;26;10997;-83
2024/04/10 00:37:32;;;;;;;;;3.00;0.00;;;;;;;;5429484;26;10830;-82
2024/04/10 00:40:01;;;;;;;;;1.00;1.00;;;;;;;;5442531;26;10837;-82
2024/04/10 00:42:30;;;;;;;;;1.00;0.25;;;;;;;;5432970;26;11179;-83
2024/04/10 00:44:59;;;;;;;;;1.00;1.00;;;;;;;;5415836;26;10911;-82
2024/04/10 00:47:28;;;;;;;;;4.25;1.00;;;;;;;;5434925;26;11047;-82
2024/04/10 00:49:55;;;;;;;;;0.25;0.25;;;;;;;;5409639;26;11070;-83
2024/04/10 00:52:23;;;;;;;;;1.00;1.00;;;;;;;;5415225;26;11068;-82
2024/04/10 00:54:52;;;;;;;;;3.25;2.00;;;;;;;;5422438;26;11197;-81
2024/04/10 00:57:21;;;;;;;;;0.00;0.00;;;;;;;;5420067;26;12230;-83
2024/04/10 00:59:48;;;;;;;;;1.00;1.00;;;;;;;;5427209;26;10717;-82
2024/04/10 01:02:17;;;;;;;;;0.00;0.00;;;;;;;;5417488;26;11823;-82
2024/04/10 01:04:43;;;;;;;;;0.00;0.00;;;;;;;;5430183;26;11010;-82
2024/04/10 01:07:13;;;;;;;;;2.00;2.00;;;;;;;;5420813;26;11173;-82
2024/04/10 01:09:39;;;;;;;;;3.00;1.00;;;;;;;;5430274;26;11125;-82
2024/04/10 01:12:11;;;;;;;;;1.00;1.00;;;;;;;;5418219;26;10967;-83
2024/04/10 01:14:37;;;;;;;;;1.25;0.25;;;;;;;;5404045;26;11194;-83
2024/04/10 01:17:06;;;;;;;;;1.00;1.00;;;;;;;;5419440;26;11936;-83
2024/04/10 01:19:32;;;;;;;;;3.75;1.00;;;;;;;;5415617;26;11783;-83
2024/04/10 01:22:01;;;;;;;;;2.00;2.00;;;;;;;;5415267;26;11113;-83
2024/04/10 01:24:30;;;;;;;;;2.50;1.00;;;;;;;;5414904;26;11040;-84
2024/04/10 01:27:03;;;;;;;;;3.00;1.25;;;;;;;;5437060;26;11132;-84
2024/04/10 01:29:32;;;;;;;;;1.75;1.00;;;;;;;;5435902;26;11201;-83
2024/04/10 01:32:07;;;;;;;;;0.00;0.00;;;;;;;;5416968;26;10784;-84
2024/04/10 01:34:33;;;;;;;;;0.00;0.00;;;;;;;;5449138;26;10967;-83
2024/04/10 01:37:05;;;;;;;;;2.00;0.00;;;;;;;;5447199;26;11712;-83
2024/04/10 01:39:34;;;;;;;;;2.50;1.00;;;;;;;;5450357;26;11151;-83
2024/04/10 01:42:06;;;;;;;;;5.00;1.00;;;;;;;;5415659;26;11248;-83
2024/04/10 01:44:33;;;;;;;;;0.75;0.75;;;;;;;;5417147;26;11188;-83
2024/04/10 01:47:03;;;;;;;;;1.00;1.00;;;;;;;;5437376;26;11175;-83
2024/04/10 01:49:29;;;;;;;;;0.00;0.00;;;;;;;;5414669;26;11287;-82
2024/04/10 01:51:58;;;;;;;;;3.00;0.00;;;;;;;;5429332;26;11271;-82
2024/04/10 01:54:25;;;;;;;;;5.50;1.75;;;;;;;;5402091;26;11544;-82
2024/04/10 01:56:56;;;;;;;;;2.50;1.25;;;;;;;;5417907;26;11235;-82
2024/04/10 01:59:22;;;;;;;;;3.75;1.00;;;;;;;;5414055;26;11242;-83
2024/04/10 02:01:52;;;;;;;;;0.50;0.50;;;;;;;;5425334;26;11242;-83
2024/04/10 02:04:18;;;;;;;;;0.50;0.50;;;;;;;;5447450;26;11525;-83
2024/04/10 02:06:47;;;;;;;;;1.25;1.25;;;;;;;;5415677;26;11548;-84
2024/04/10 02:09:13;;;;;;;;;2.00;2.00;;;;;;;;5439303;26;11536;-82
2024/04/10 02:11:42;;;;;;;;;2.00;0.50;;;;;;;;5434614;26;11499;-82
2024/04/10 02:14:14;;;;;;;;;2.50;1.75;;;;;;;;5413259;26;11511;-82
2024/04/10 02:16:43;;;;;;;;;2.00;1.00;;;;;;;;5414782;26;11501;-82
2024/04/10 02:19:09;;;;;;;;;2.25;1.25;;;;;;;;5413340;26;11747;-82
2024/04/10 02:21:38;;;;;;;;;1.50;1.50;;;;;;;;5430966;26;11497;-82
2024/04/10 02:24:06;;;;;;;;;1.00;1.00;;;;;;;;5446825;26;11506;-82
2024/04/10 02:26:36;;;;;;;;;1.00;1.00;;;;;;;;5431366;26;11518;-82
2024/04/10 02:29:02;;;;;;;;;1.00;1.00;;;;;;;;5413765;26;11512;-83
2024/04/10 02:31:36;;;;;;;;;3.00;1.75;;;;;;;;5413668;26;11041;-83
2024/04/10 02:34:03;;;;;;;;;1.00;1.00;;;;;;;;5422083;26;11503;-82
2024/04/10 02:36:35;;;;;;;;;2.00;1.00;;;;;;;;5428172;26;11545;-82
2024/04/10 02:39:01;;;;;;;;;2.50;1.00;;;;;;;;5435356;26;11505;-82
2024/04/10 02:41:36;;;;;;;;;0.00;0.00;;;;;;;;5416018;26;11520;-82
2024/04/10 02:44:03;;;;;;;;;1.00;1.00;;;;;;;;5407097;26;11555;-83
2024/04/10 02:46:31;;;;;;;;;0.25;0.25;;;;;;;;5450478;26;11586;-82
2024/04/10 02:49:00;;;;;;;;;0.00;0.00;;;;;;;;5432099;26;11465;-82
2024/04/10 02:51:29;;;;;;;;;1.00;1.00;;;;;;;;5428401;26;11507;-82
2024/04/10 02:53:56;;;;;;;;;2.00;1.75;;;;;;;;5452389;26;11473;-83
2024/04/10 02:56:30;;;;;;;;;1.00;1.00;;;;;;;;5449359;26;11473;-80
2024/04/10 02:58:56;;;;;;;;;1.00;1.00;;;;;;;;5434902;26;11604;-82
2024/04/10 03:01:25;;;;;;;;;0.00;0.00;;;;;;;;5417709;26;11285;-83
2024/04/10 03:03:52;;;;;;;;;0.00;0.00;;;;;;;;5413608;26;11527;-83
2024/04/10 03:06:24;;;;;;;;;1.00;1.00;;;;;;;;5416663;26;11543;-84
2024/04/10 03:08:50;;;;;;;;;2.00;0.00;;;;;;;;5418214;26;11555;-84
2024/04/10 03:11:19;;;;;;;;;3.00;1.25;;;;;;;;5419778;26;11498;-83
2024/04/10 03:13:45;;;;;;;;;2.00;1.00;;;;;;;;5413617;26;11500;-83
2024/04/10 03:16:14;;;;;;;;;1.75;1.75;;;;;;;;5414056;26;11492;-83
2024/04/10 03:18:41;;;;;;;;;2.00;0.00;;;;;;;;5413996;26;11515;-84
2024/04/10 03:21:10;;;;;;;;;1.00;1.00;;;;;;;;5412565;26;11598;-83
2024/04/10 03:23:39;;;;;;;;;0.75;0.75;;;;;;;;5414031;26;11496;-83
2024/04/10 03:26:09;;;;;;;;;3.50;1.00;;;;;;;;5384592;26;11547;-84
2024/04/10 03:28:35;;;;;;;;;1.50;1.00;;;;;;;;5406203;26;11485;-83
2024/04/10 03:31:07;;;;;;;;;0.00;0.00;;;;;;;;5415793;26;11294;-83
2024/04/10 03:33:34;;;;;;;;;1.50;1.50;;;;;;;;5415734;26;11522;-83
2024/04/10 03:36:04;;;;;;;;;3.00;1.00;;;;;;;;5414127;26;11536;-83
2024/04/10 03:38:30;;;;;;;;;1.00;1.00;;;;;;;;5413417;26;11698;-84
2024/04/10 03:41:04;;;;;;;;;2.00;1.00;;;;;;;;5413244;26;11497;-84
2024/04/10 03:43:33;;;;;;;;;3.00;1.00;;;;;;;;5413533;26;11517;-83
2024/04/10 03:46:04;;;;;;;;;2.00;0.00;;;;;;;;5413398;26;11539;-83
2024/04/10 03:48:33;;;;;;;;;0.50;0.50;;;;;;;;5412667;26;11584;-82
2024/04/10 03:51:02;;;;;;;;;1.75;1.00;;;;;;;;5414620;26;11485;-82
2024/04/10 03:53:32;;;;;;;;;2.75;0.50;;;;;;;;5420948;26;11521;-84
2024/04/10 03:56:12;;;;;;;;;2.00;2.00;;;;;;;;5416029;26;11537;-85
2024/04/10 03:58:38;;;;;;;;;0.50;0.50;;;;;;;;5393225;26;11533;-85
2024/04/10 04:01:07;;;;;;;;;1.00;1.00;;;;;;;;5412182;26;11425;-87
2024/04/10 04:03:34;;;;;;;;;1.00;1.00;;;;;;;;5423778;26;11555;-85
2024/04/10 04:06:04;;;;;;;;;0.50;0.50;;;;;;;;5403078;26;11511;-81
2024/04/10 04:08:31;;;;;;;;;4.00;2.00;;;;;;;;5440673;26;11572;-81
2024/04/10 04:11:04;;;;;;;;;2.50;1.00;;;;;;;;5437529;26;11546;-80
2024/04/10 04:13:33;;;;;;;;;3.00;1.75;;;;;;;;5393633;26;12445;-79
2024/04/10 04:16:02;;;;;;;;;1.00;0.00;;;;;;;;5430597;26;11572;-81
2024/04/10 04:18:28;;;;;;;;;1.00;1.00;;;;;;;;5440898;26;11586;-81
2024/04/10 04:21:00;;;;;;;;;4.50;0.00;;;;;;;;5417132;26;11571;-82
2024/04/10 04:23:26;;;;;;;;;0.50;0.50;;;;;;;;5441236;26;11585;-81
2024/04/10 04:25:58;;;;;;;;;1.50;1.00;;;;;;;;5433720;26;11572;-81
2024/04/10 04:28:24;;;;;;;;;1.00;1.00;;;;;;;;5429253;26;11570;-81
2024/04/10 04:30:56;;;;;;;;;2.50;1.00;;;;;;;;5432353;26;11307;-81
2024/04/10 04:33:22;;;;;;;;;0.00;0.00;;;;;;;;5416682;26;11566;-81
2024/04/10 04:35:52;;;;;;;;;2.75;0.50;;;;;;;;5428930;26;11624;-81
2024/04/10 04:38:18;;;;;;;;;1.25;1.00;;;;;;;;5442623;26;11737;-79
2024/04/10 04:40:47;;;;;;;;;1.00;1.00;;;;;;;;5436985;26;11590;-81
2024/04/10 04:43:13;;;;;;;;;1.00;1.00;;;;;;;;5439932;26;11556;-81
2024/04/10 04:45:43;;;;;;;;;3.00;1.00;;;;;;;;5421638;26;12461;-81
2024/04/10 04:48:11;;;;;;;;;2.00;2.00;;;;;;;;5437742;26;11581;-81
2024/04/10 04:50:41;;;;;;;;;3.00;1.50;;;;;;;;5435121;26;11569;-81
2024/04/10 04:53:08;;;;;;;;;1.00;1.00;;;;;;;;5435008;26;11607;-82
2024/04/10 04:55:37;;;;;;;;;1.00;1.00;;;;;;;;5435708;26;11555;-82
2024/04/10 04:58:04;;;;;;;;;3.00;1.25;;;;;;;;5434433;26;11602;-82
2024/04/10 05:00:33;;;;;;;;;2.00;0.25;;;;;;;;5427595;26;11249;-83
2024/04/10 05:03:00;;;;;;;;;2.00;2.00;;;;;;;;5445632;26;11539;-81
2024/04/10 05:05:29;;;;;;;;;2.50;2.50;;;;;;;;5432879;26;11569;-81
2024/04/10 05:07:58;;;;;;;;;6.00;3.00;;;;;;;;5437069;26;11661;-81
2024/04/10 05:10:33;;;;;;;;;1.00;1.00;;;;;;;;5414820;26;11624;-76
2024/04/10 05:13:02;;;;;;;;;0.00;0.00;;;;;;;;5442645;26;11526;-78
2024/04/10 05:15:38;;;;;;;;;1.25;1.25;;;;;;;;5447998;26;11307;-77
2024/04/10 05:18:05;;;;;;;;;3.00;2.00;;;;;;;;5424366;26;11536;-77
2024/04/10 05:20:37;;;;;;;;;2.00;2.00;;;;;;;;5446952;26;11595;-77
2024/04/10 05:23:04;;;;;;;;;2.50;1.75;;;;;;;;5406308;26;11658;-77
2024/04/10 05:25:34;;;;;;;;;1.00;1.00;;;;;;;;5443636;26;11694;-76
2024/04/10 05:28:01;;;;;;;;;1.00;1.00;;;;;;;;5427465;26;11542;-76
2024/04/10 05:30:33;;;;;;;;;1.75;1.50;;;;;;;;5442804;26;11408;-77
2024/04/10 05:33:01;;;;;;;;;1.00;1.00;;;;;;;;5431343;26;12464;-75
2024/04/10 05:35:32;;;;;;;;;1.00;1.00;;;;;;;;5417458;26;11552;-76
2024/04/10 05:38:01;;;;;;;;;2.00;1.00;;;;;;;;5446346;26;11586;-75
2024/04/10 05:40:30;;;;;;;;;2.25;2.00;;;;;;;;5437912;26;11609;-78
2024/04/10 05:42:57;;;;;;;;;2.00;1.00;;;;;;;;5434210;26;12329;-76
2024/04/10 05:45:26;;;;;;;;;2.00;2.00;;;;;;;;5447966;26;11543;-79
2024/04/10 05:47:52;;;;;;;;;2.75;2.75;;;;;;;;5447988;26;11599;-77
2024/04/10 05:50:21;;;;;;;;;3.00;3.00;;;;;;;;5436305;26;12372;-78
2024/04/10 05:52:47;;;;;;;;;4.50;4.50;;;;;;;;5435110;26;11580;-76
2024/04/10 05:55:19;;;;;;;;;6.50;4.50;;;;;;;;5443201;26;11672;-77
2024/04/10 05:57:47;;;;;;;;;4.00;4.00;;;;;;;;5443567;26;11592;-78
2024/04/10 06:00:17;;;;;;;;;4.50;4.50;;;;;;;;5424405;26;11565;-77
2024/04/10 06:02:44;;;;;;;;;6.00;3.50;;;;;;;;5423062;26;11605;-82
2024/04/10 06:05:13;;;;;;;;;6.25;3.50;;;;;;;;5435773;26;11609;-75
2024/04/10 06:07:42;;;;;;;;;9.00;5.50;;;;;;;;5439084;26;12578;-77
2024/04/10 06:10:11;;;;;;;;;7.50;7.00;;;;;;;;5448865;26;11616;-78
2024/04/10 06:12:44;;;;;;;;;10.25;7.50;;;;;;;;5423625;26;11590;-81
2024/04/10 06:15:33;;;;;;;;;5.75;3.50;;;;;;;;5432266;26;11499;-79
2024/04/10 06:18:10;;;;;;;;;4.00;4.00;;;;;;;;5424611;26;11589;-76
2024/04/10 06:20:39;;;;;;;;;7.00;4.00;;;;;;;;5423399;26;11408;-76
2024/04/10 06:23:17;;;;;;;;;6.50;6.50;;;;;;;;5429359;26;11542;-78
2024/04/10 06:25:47;;;;;;;;;4.25;4.25;;;;;;;;5418370;26;11620;-77
2024/04/10 06:28:16;;;;;;;;;4.75;4.75;;;;;;;;5414347;26;11689;-74
2024/04/10 06:37:26;;;;;;;;;;;;;;;;;;;;;
2024/04/10 06:39:58;;;;;;;;;4.00;4.00;;;;;;;;5450979;26;11529;-78
2024/04/10 06:42:48;;;;;;;;;4.00;2.00;;;;;;;;5391188;26;11513;-81
2024/04/10 06:45:19;;;;;;;;;3.00;3.00;;;;;;;;5413107;26;11528;-78
2024/04/10 06:47:46;;;;;;;;;3.25;3.25;;;;;;;;5414254;26;11507;-82
2024/04/10 06:50:16;;;;;;;;;3.50;3.50;;;;;;;;5412345;26;11533;-81
2024/04/10 06:52:43;;;;;;;;;8.00;5.25;;;;;;;;5413312;26;11405;-81
2024/04/10 06:55:12;;;;;;;;;4.50;4.00;;;;;;;;5414476;26;11743;-83
2024/04/10 06:57:38;;;;;;;;;3.75;3.00;;;;;;;;5414034;26;11524;-81
2024/04/10 07:00:12;;;;;;;;;5.25;3.00;;;;;;;;5422804;26;11229;-75
2024/04/10 07:02:42;;;;;;;;;4.00;4.00;;;;;;;;5425952;26;11330;-81
2024/04/10 07:05:12;;;;;;;;;2.75;2.75;;;;;;;;5394345;26;11190;-79
2024/04/10 07:07:38;;;;;;;;;8.00;4.00;;;;;;;;5436484;26;11108;-81
2024/04/10 07:10:09;;;;;;;;;2.25;2.25;;;;;;;;5425996;26;11296;-81
2024/04/10 07:12:35;;;;;;;;;3.25;3.25;;;;;;;;5443375;26;11143;-79
2024/04/10 07:15:04;;;;;;;;;5.00;4.00;;;;;;;;5445702;26;11243;-80
2024/04/10 07:17:31;;;;;;;;;4.75;4.75;;;;;;;;5439757;26;11095;-80
2024/04/10 07:20:09;;;;;;;;;3.50;2.00;;;;;;;;5427799;26;11035;-79
2024/04/10 07:22:35;;;;;;;;;3.50;3.50;;;;;;;;5436860;26;11092;-79
2024/04/10 07:25:05;;;;;;;;;2.00;2.00;;;;;;;;5430936;26;10966;-79
2024/04/10 07:27:31;;;;;;;;;9.00;4.00;;;;;;;;5435335;26;10819;-80
2024/04/10 07:30:08;;;;;;;;;2.50;2.00;;;;;;;;5431890;26;10855;-81
2024/04/10 07:32:34;;;;;;;;;7.25;3.50;;;;;;;;5410041;26;10768;-80
2024/04/10 07:35:09;;;;;;;;;4.25;3.00;;;;;;;;5432140;26;10871;-75
2024/04/10 07:37:35;;;;;;;;;3.00;1.00;;;;;;;;5391767;26;10646;-80
2024/04/10 07:40:15;;;;;;;;;4.25;2.75;;;;;;;;5410506;26;10659;-81
2024/04/10 07:42:41;;;;;;;;;7.00;3.00;;;;;;;;5429291;26;10689;-79
2024/04/10 07:45:11;;;;;;;;;2.50;1.00;;;;;;;;5436118;26;10640;-79
2024/04/10 07:47:37;;;;;;;;;2.75;2.75;;;;;;;;5445600;26;10531;-76
2024/04/10 07:50:09;;;;;;;;;2.75;2.75;;;;;;;;5420867;26;10521;-80
2024/04/10 07:52:35;;;;;;;;;3.00;2.50;;;;;;;;5445255;26;10386;-77
2024/04/10 07:55:05;;;;;;;;;6.75;3.25;;;;;;;;5414536;26;10468;-79
2024/04/10 07:57:31;;;;;;;;;3.00;3.00;;;;;;;;5432194;26;10490;-75
2024/04/10 08:00:03;;;;;;;;;3.50;3.25;;;;;;;;5420612;26;10530;-80
2024/04/10 08:02:30;;;;;;;;;6.50;6.50;;;;;;;;5450052;26;10207;-78
2024/04/10 08:05:00;;;;;;;;;10.50;6.00;;;;;;;;5439965;26;11236;-76
2024/04/10 08:07:32;;;;;;;;;4.50;4.50;;;;;;;;5419079;26;10773;-78
2024/04/10 08:10:03;;;;;;;;;6.50;4.00;;;;;;;;5439046;26;10398;-77
2024/04/10 08:12:30;;;;;;;;;4.25;4.25;;;;;;;;5416773;26;10355;-77
2024/04/10 08:14:58;;;;;;;;;3.50;3.50;;;;;;;;5437918;26;10124;-79
2024/04/10 08:17:28;;;;;;;;;1.25;1.25;;;;;;;;5438124;26;10892;-80
2024/04/10 08:19:57;;;;;;;;;5.75;5.75;;;;;;;;5448985;26;10050;-79
2024/04/10 08:22:24;;;;;;;;;4.25;2.00;;;;;;;;5421516;26;10153;-80
2024/04/10 08:24:56;;;;;;;;;4.50;3.25;;;;;;;;5433431;26;10072;-80
2024/04/10 08:27:22;;;;;;;;;6.50;5.50;;;;;;;;5416484;26;10105;-81
2024/04/10 08:29:53;;;;;;;;;7.75;4.00;;;;;;;;5448294;26;10068;-79
2024/04/10 08:32:19;;;;;;;;;4.25;3.00;;;;;;;;5408656;26;10087;-79
2024/04/10 08:34:48;;;;;;;;;14.25;11.25;;;;;;;;5413349;26;10156;-79
2024/04/10 08:37:16;;;;;;;;;15.50;11.00;;;;;;;;5434629;26;10442;-78
2024/04/10 08:39:45;;;;;;;;;13.25;11.75;;;;;;;;5432486;26;10206;-79
2024/04/10 08:42:18;;;;;;;;;5.00;4.00;;;;;;;;5443004;26;10200;-81
2024/04/10 08:44:47;;;;;;;;;5.00;5.00;;;;;;;;5424458;26;9881;-80
2024/04/10 08:47:13;;;;;;;;;11.25;4.25;;;;;;;;5434605;26;9787;-80
2024/04/10 08:49:42;;;;;;;;;4.00;2.00;;;;;;;;5437066;26;9862;-76
2024/04/10 08:52:09;;;;;;;;;2.67;2.67;;;;;;;;5415378;26;9579;-80
2024/04/10 08:54:38;;;;;;;;;4.00;2.67;;;;;;;;5437193;26;9408;-80
2024/04/10 08:57:05;;;;;;;;;2.67;2.67;;;;;;;;5393257;26;9385;-80
2024/04/10 08:59:37;;;;;;;;;4.00;2.33;;;;;;;;5413972;26;9241;-80
2024/04/10 09:02:03;;;;;;;;;3.67;2.00;;;;;;;;5413792;26;9168;-81
2024/04/10 09:04:32;;;;;;;;;4.00;2.00;;;;;;;;5437702;26;9178;-77
2024/04/10 09:07:01;;;;;;;;;1.00;1.00;;;;;;;;5414830;26;9106;-78
2024/04/10 09:09:33;;;;;;;;;2.00;2.00;;;;;;;;5436528;26;8866;-79
2024/04/10 09:12:03;;;;;;;;;3.25;1.75;;;;;;;;5430355;26;8844;-80
2024/04/10 09:14:37;;;;;;;;;5.75;2.75;;;;;;;;5434507;26;8872;-80
2024/04/10 09:17:04;;;;;;;;;2.50;2.50;;;;;;;;5432848;26;8937;-81
2024/04/10 09:19:32;;;;;;;;;1.00;1.00;;;;;;;;5422313;26;8865;-78
2024/04/10 09:22:00;;;;;;;;;3.25;2.50;;;;;;;;5448807;26;8860;-78
2024/04/10 09:24:32;;;;;;;;;3.00;2.25;;;;;;;;5423383;26;8888;-76
2024/04/10 09:27:09;;;;;;;;;1.50;1.50;;;;;;;;5424236;26;8882;-78
2024/04/10 09:29:41;;;;;;;;;3.00;2.00;;;;;;;;5394603;26;8793;-79
2024/04/10 09:32:10;;;;;;;;;1.50;1.00;;;;;;;;5412351;26;8843;-78
2024/04/10 09:34:39;;;;;;;;;5.50;1.00;;;;;;;;5414962;26;8847;-77
2024/04/10 09:37:06;;;;;;;;;4.00;0.75;;;;;;;;5415577;26;8854;-78
2024/04/10 09:39:34;;;;;;;;;4.00;1.00;;;;;;;;5444746;26;8856;-79
2024/04/10 09:42:02;;;;;;;;;2.00;0.00;;;;;;;;5439864;26;8871;-77
2024/04/10 09:44:35;;;;;;;;;3.00;2.00;;;;;;;;5444680;26;8810;-77
2024/04/10 09:47:05;;;;;;;;;1.50;1.50;;;;;;;;5413468;26;8974;-78
2024/04/10 09:49:41;;;;;;;;;3.50;1.00;;;;;;;;5413249;26;8844;-77
2024/04/10 09:52:12;;;;;;;;;2.75;1.00;;;;;;;;5410316;26;8848;-75
2024/04/10 09:54:45;;;;;;;;;1.75;1.75;;;;;;;;5432529;26;8836;-77
2024/04/10 09:57:13;;;;;;;;;1.00;1.00;;;;;;;;5442563;26;8925;-76
2024/04/10 09:59:42;;;;;;;;;2.25;1.00;;;;;;;;5422278;26;8903;-76
2024/04/10 10:02:16;;;;;;;;;3.50;2.00;;;;;;;;5448895;26;8833;-76
2024/04/10 10:04:45;;;;;;;;;3.75;1.00;;;;;;;;5424099;26;8963;-78
2024/04/10 10:07:20;;;;;;;;;3.00;2.25;;;;;;;;5429018;26;8901;-77
2024/04/10 10:09:50;;;;;;;;;3.00;0.00;;;;;;;;5421649;26;8824;-76
2024/04/10 10:12:25;;;;;;;;;1.00;1.00;;;;;;;;5447592;26;8844;-78
2024/04/10 10:14:53;;;;;;;;;1.00;1.00;;;;;;;;5426991;26;8864;-77
2024/04/10 10:17:28;;;;;;;;;1.25;1.00;;;;;;;;5422841;26;8868;-76
2024/04/10 10:20:00;;;;;;;;;0.00;0.00;;;;;;;;5428563;26;8924;-76
2024/04/10 10:22:32;;;;;;;;;0.50;0.50;;;;;;;;5421092;26;8979;-77
2024/04/10 10:25:04;;;;;;;;;1.50;1.00;;;;;;;;5444689;26;9624;-76
2024/04/10 10:27:32;;;;;;;;;1.50;0.75;;;;;;;;5433639;26;8844;-78
2024/04/10 10:30:06;;;;;;;;;2.00;1.00;;;;;;;;5432260;26;8885;-77
2024/04/10 10:32:35;;;;;;;;;1.00;1.00;;;;;;;;5420948;26;8800;-77
2024/04/10 10:35:09;;;;;;;;;0.25;0.25;;;;;;;;5443527;26;8870;-78
2024/04/10 10:37:35;;;;;;;;;0.75;0.75;;;;;;;;5444884;26;9704;-78
2024/04/10 10:40:06;;;;;;;;;0.50;0.50;;;;;;;;5422158;26;8874;-78
2024/04/10 10:42:33;;;;;;;;;1.00;0.75;;;;;;;;5425640;26;8844;-79
2024/04/10 10:45:08;;;;;;;;;0.00;0.00;;;;;;;;5439636;26;8840;-78
2024/04/10 10:47:41;;;;;;;;;1.00;1.00;;;;;;;;5444056;26;8832;-84
2024/04/10 10:50:10;;;;;;;;;2.00;0.75;;;;;;;;5419349;26;8844;-81
2024/04/10 10:52:36;;;;;;;;;1.00;1.00;;;;;;;;5444862;26;8886;-76
2024/04/10 10:55:07;;;;;;;;;1.00;1.00;;;;;;;;5437476;26;8856;-75
2024/04/10 10:57:34;;;;;;;;;1.00;1.00;;;;;;;;5425086;26;8856;-78
2024/04/10 11:00:15;;;;;;;;;1.00;1.00;;;;;;;;5427996;26;8835;-76
2024/04/10 11:02:44;;;;;;;;;1.00;1.00;;;;;;;;5412172;26;8820;-79
2024/04/10 11:05:15;;;;;;;;;1.25;0.75;;;;;;;;5415568;26;8973;-79
2024/04/10 11:07:41;;;;;;;;;1.00;1.00;;;;;;;;5415942;26;8868;-80
2024/04/10 11:10:11;;;;;;;;;1.75;0.00;;;;;;;;5411749;26;8888;-79
2024/04/10 11:12:38;;;;;;;;;0.00;0.00;;;;;;;;5412167;26;8856;-79
2024/04/10 11:15:13;;;;;;;;;1.00;1.00;;;;;;;;5414417;26;8937;-76
2024/04/10 11:17:39;;;;;;;;;1.50;1.50;;;;;;;;5415513;26;8920;-79
2024/04/10 11:20:13;;;;;;;;;1.25;0.00;;;;;;;;5415073;26;8960;-78
2024/04/10 11:22:39;;;;;;;;;0.00;0.00;;;;;;;;5406170;26;9090;-78
2024/04/10 11:25:08;;;;;;;;;1.50;1.00;;;;;;;;5402646;26;8820;-80
2024/04/10 11:27:34;;;;;;;;;0.00;0.00;;;;;;;;5415227;26;8840;-80
2024/04/10 11:30:07;;;;;;;;;2.00;0.00;;;;;;;;5412945;26;8856;-77
2024/04/10 11:32:33;;;;;;;;;2.00;1.00;;;;;;;;5411942;26;9050;-78
2024/04/10 11:35:03;;;;;;;;;1.25;1.25;;;;;;;;5412667;26;8867;-78
2024/04/10 11:37:32;;;;;;;;;1.25;1.00;;;;;;;;5393723;26;8914;-77
2024/04/10 11:40:01;;;;;;;;;0.00;0.00;;;;;;;;5414496;26;8824;-77
2024/04/10 11:42:29;;;;;;;;;1.25;0.00;;;;;;;;5415106;26;8898;-76
2024/04/10 11:44:58;;;;;;;;;0.25;0.00;;;;;;;;5415124;26;8875;-78
2024/04/10 11:47:25;;;;;;;;;0.00;0.00;;;;;;;;5412559;26;8882;-76
2024/04/10 11:49:53;;;;;;;;;0.00;0.00;;;;;;;;5418080;26;8840;-80
2024/04/10 11:52:20;;;;;;;;;0.75;0.75;;;;;;;;5416216;26;9979;-79
2024/04/10 11:54:51;;;;;;;;;0.00;0.00;;;;;;;;5413326;26;8789;-82
2024/04/10 11:57:17;;;;;;;;;1.00;0.80;;;;;;;;5402801;26;9695;-80
2024/04/10 11:59:49;;;;;;;;;0.00;0.00;;;;;;;;5421405;26;8824;-80
2024/04/10 12:02:17;;;;;;;;;0.80;0.00;;;;;;;;5447252;26;8872;-81
2024/04/10 12:04:46;;;;;;;;;0.20;0.20;;;;;;;;5416515;26;8864;-82
2024/04/10 12:07:12;;;;;;;;;0.00;0.00;;;;;;;;5430270;26;8847;-82
2024/04/10 12:09:42;;;;;;;;;0.00;0.00;;;;;;;;5412967;26;8824;-79
2024/04/10 12:12:11;;;;;;;;;1.75;0.00;;;;;;;;5430809;26;8860;-80
2024/04/10 12:14:44;;;;;;;;;0.25;0.25;;;;;;;;5412123;26;8868;-81
2024/04/10 12:17:13;;;;;;;;;0.00;0.00;;;;;;;;5410669;26;8923;-81
2024/04/10 12:19:41;;;;;;;;;1.00;0.00;;;;;;;;5443040;26;8836;-79
2024/04/10 12:22:11;;;;;;;;;1.20;0.00;;;;;;;;5420027;26;8852;-79
2024/04/10 12:24:41;;;;;;;;;0.00;0.00;;;;;;;;5412237;26;8852;-78
2024/04/10 12:27:10;;;;;;;;;1.60;0.00;;;;;;;;5411002;26;8911;-82
2024/04/10 12:29:39;;;;;;;;;0.60;0.60;;;;;;;;5440951;26;9581;-80
2024/04/10 12:32:05;;;;;;;;;0.40;0.00;;;;;;;;5437454;26;8769;-81
2024/04/10 12:34:34;;;;;;;;;0.60;0.60;;;;;;;;5442842;26;8919;-79
2024/04/10 12:39:54;;;;;;;;;0.60;0.60;;;;;;;;5447019;26;8815;-80
2024/04/10 12:42:26;;;;;;;;;2.00;0.00;;;;;;;;5441910;26;8836;-86
2024/04/10 12:44:55;;;;;;;;;1.00;0.00;;;;;;;;5441364;26;8852;-82
2024/04/10 12:47:21;;;;;;;;;1.20;0.00;;;;;;;;5406231;26;8855;-80
2024/04/10 12:49:50;;;;;;;;;0.00;0.00;;;;;;;;5423478;26;8908;-79
2024/04/10 12:52:16;;;;;;;;;1.00;1.00;;;;;;;;5447363;26;8855;-81
2024/04/10 12:54:47;;;;;;;;;0.40;0.40;;;;;;;;5442158;26;8839;-79
2024/04/10 12:57:13;;;;;;;;;0.00;0.00;;;;;;;;5414232;26;9685;-78
2024/04/10 12:59:48;;;;;;;;;0.00;0.00;;;;;;;;5416070;26;8844;-82
2024/04/10 13:02:14;;;;;;;;;0.80;0.80;;;;;;;;5448516;26;8997;-80
2024/04/10 13:04:45;;;;;;;;;0.00;0.00;;;;;;;;5418894;26;8946;-77
2024/04/10 13:07:13;;;;;;;;;0.60;0.60;;;;;;;;5414069;26;8872;-75
2024/04/10 13:09:42;;;;;;;;;2.00;0.00;;;;;;;;5442449;26;8836;-77
2024/04/10 13:12:08;;;;;;;;;0.00;0.00;;;;;;;;5447541;26;8836;-79
2024/04/10 13:14:37;;;;;;;;;0.20;0.20;;;;;;;;5439669;26;8827;-76
2024/04/10 13:17:06;;;;;;;;;0.00;0.00;;;;;;;;5436488;26;8820;-78
2024/04/10 13:19:35;;;;;;;;;1.00;0.00;;;;;;;;5439140;26;8880;-79
2024/04/10 13:22:04;;;;;;;;;0.60;0.60;;;;;;;;5435304;26;8859;-78
2024/04/10 13:24:34;;;;;;;;;1.40;0.60;;;;;;;;5412400;26;8863;-76
2024/04/10 13:27:05;;;;;;;;;1.20;0.60;;;;;;;;5413874;26;8848;-77
2024/04/10 13:29:34;;;;;;;;;0.00;0.00;;;;;;;;5445584;26;8897;-77
2024/04/10 13:32:08;;;;;;;;;2.00;1.00;;;;;;;;5421229;26;8821;-78
2024/04/10 13:34:37;;;;;;;;;0.80;0.80;;;;;;;;5410195;26;8895;-83
2024/04/10 13:37:04;;;;;;;;;1.00;0.00;;;;;;;;5419702;26;8872;-78
2024/04/10 13:39:35;;;;;;;;;0.80;0.80;;;;;;;;5414982;26;8847;-78
2024/04/10 13:42:02;;;;;;;;;2.00;0.40;;;;;;;;5434601;26;8824;-81
2024/04/10 13:44:34;;;;;;;;;0.00;0.00;;;;;;;;5416501;26;8797;-79
2024/04/10 13:47:07;;;;;;;;;60.00;42.75;;;;;;;;5414589;26;8832;-78
2024/04/10 13:49:36;;;;;;;;;9.00;5.20;;;;;;;;5433923;26;8872;-78
2024/04/10 13:52:02;;;;;;;;;23.20;15.60;;;;;;;;5421261;26;8824;-78
2024/04/10 13:54:35;;;;;;;;;3.20;2.20;;;;;;;;5422513;26;8942;-78
2024/04/10 13:57:01;;;;;;;;;17.00;12.60;;;;;;;;5422758;26;8836;-81
2024/04/10 13:59:36;;;;;;;;;2.00;0.40;;;;;;;;5421827;26;8866;-78
2024/04/10 14:02:02;;;;;;;;;0.00;0.00;;;;;;;;5432188;26;8793;-80
2024/04/10 14:04:37;;;;;;;;;0.00;0.00;;;;;;;;5435736;26;8855;-77
2024/04/10 14:07:06;;;;;;;;;2.00;0.60;;;;;;;;5413044;26;8859;-79
2024/04/10 14:09:35;;;;;;;;;0.80;0.00;;;;;;;;5412646;26;8844;-78
2024/04/10 14:12:01;;;;;;;;;0.20;0.20;;;;;;;;5412416;26;8852;-79
2024/04/10 14:14:34;;;;;;;;;0.00;0.00;;;;;;;;5440160;26;8902;-80
2024/04/10 14:17:05;;;;;;;;;0.80;0.80;;;;;;;;5446356;26;8835;-78
2024/04/10 14:19:37;;;;;;;;;;;;;;;;;;5446535;26;8828;-82
2024/04/10 14:22:07;;;;;;;;;0.00;0.00;;;;;;;;5445720;26;9413;-81
2024/04/10 14:24:36;;;;;;;;;0.00;0.00;;;;;;;;5424273;26;8994;-80
2024/04/10 14:27:03;;;;;;;;;4.00;4.00;;;;;;;;5443484;26;8874;-79
2024/04/10 14:29:34;;;;;;;;;1.60;0.80;;;;;;;;5404505;26;8865;-80
2024/04/10 14:32:04;;;;;;;;;0.60;0.60;;;;;;;;5439672;26;8832;-78
2024/04/10 14:34:38;;;;;;;;;0.00;0.00;;;;;;;;5406014;26;8860;-78
2024/04/10 14:37:08;;;;;;;;;0.20;0.20;;;;;;;;5435621;26;8833;-83
2024/04/10 14:39:39;;;;;;;;;0.40;0.40;;;;;;;;5443703;26;8860;-82
2024/04/10 14:42:06;;;;;;;;;1.20;0.20;;;;;;;;5417921;26;8829;-81
2024/04/10 14:44:43;;;;;;;;;1.00;1.00;;;;;;;;5442624;26;8921;-83
2024/04/10 14:47:09;;;;;;;;;1.40;0.60;;;;;;;;5430742;26;8816;-80
2024/04/10 14:49:41;;;;;;;;;2.20;0.80;;;;;;;;5431367;26;8851;-81
2024/04/10 14:52:07;;;;;;;;;2.00;1.80;;;;;;;;5428394;26;8824;-80
2024/04/10 14:54:36;;;;;;;;;1.00;1.00;;;;;;;;5429008;26;8848;-77
2024/04/10 14:57:03;;;;;;;;;2.80;1.20;;;;;;;;5411786;26;8834;-80
2024/04/10 14:59:34;;;;;;;;;0.00;0.00;;;;;;;;5415608;26;8895;-76
2024/04/10 15:02:03;;;;;;;;;0.80;0.80;;;;;;;;5452423;26;8781;-74
2024/04/10 15:04:33;;;;;;;;;0.00;0.00;;;;;;;;5460864;26;8848;-80
2024/04/10 15:07:02;;;;;;;;;0.40;0.40;;;;;;;;5448817;26;8863;-77
2024/04/10 15:09:34;;;;;;;;;1.00;1.00;;;;;;;;5460745;26;8816;-79
2024/04/10 15:12:03;;;;;;;;;1.00;1.00;;;;;;;;5450020;26;8868;-76